sensor_id;sensor_type;location;lat;lon;timestamp;P1;durP1;ratioP1;P2;durP2;ratioP2
15327;SDS011;7764;51.430;6.840;2023-04-01T00:00:59;5.83;;;1.90;;
15327;SDS011;7764;51.430;6.840;2023-04-01T00:03:27;5.60;;;2.10;;
15327;SDS011;7764;51.430;6.840;2023-04-01T00:05:56;6.17;;;1.73;;
15327;SDS011;7764;51.430;6.840;2023-04-01T00:08:24;5.13;;;1.90;;
15327;SDS011;7764;51.430;6.840;2023-04-01T00:10:51;5.73;;;1.73;;
15327;SDS011;7764;51.430;6.840;2023-04-01T00:13:18;4.93;;;1.70;;
15327;SDS011;7764;51.430;6.840;2023-04-01T00:15:46;5.30;;;1.70;;
15327;SDS011;7764;51.430;6.840;2023-04-01T00:18:14;5.47;;;1.70;;
15327;SDS011;7764;51.430;6.840;2023-04-01T00:20:43;6.77;;;2.43;;
15327;SDS011;7764;51.430;6.840;2023-04-01T00:23:12;4.40;;;1.73;;
15327;SDS011;7764;51.430;6.840;2023-04-01T00:25:39;6.43;;;2.17;;
15327;SDS011;7764;51.430;6.840;2023-04-01T00:28:06;4.63;;;1.70;;
15327;SDS011;7764;51.430;6.840;2023-04-01T00:30:33;7.70;;;2.00;;
15327;SDS011;7764;51.430;6.840;2023-04-01T00:33:01;5.93;;;1.90;;
15327;SDS011;7764;51.430;6.840;2023-04-01T00:35:28;3.70;;;1.50;;
15327;SDS011;7764;51.430;6.840;2023-04-01T00:37:55;11.10;;;1.83;;
15327;SDS011;7764;51.430;6.840;2023-04-01T00:40:25;6.10;;;1.70;;
15327;SDS011;7764;51.430;6.840;2023-04-01T00:42:54;3.90;;;1.40;;
15327;SDS011;7764;51.430;6.840;2023-04-01T00:45:26;5.83;;;1.90;;
15327;SDS011;7764;51.430;6.840;2023-04-01T00:47:55;4.43;;;1.80;;
15327;SDS011;7764;51.430;6.840;2023-04-01T00:50:24;3.03;;;1.67;;
15327;SDS011;7764;51.430;6.840;2023-04-01T00:52:53;6.50;;;1.53;;
15327;SDS011;7764;51.430;6.840;2023-04-01T00:55:21;4.03;;;1.77;;
15327;SDS011;7764;51.430;6.840;2023-04-01T00:57:50;4.93;;;1.80;;
15327;SDS011;7764;51.430;6.840;2023-04-01T01:00:21;4.40;;;1.70;;
15327;SDS011;7764;51.430;6.840;2023-04-01T01:02:48;5.03;;;1.90;;
15327;SDS011;7764;51.430;6.840;2023-04-01T01:05:17;5.23;;;1.90;;
15327;SDS011;7764;51.430;6.840;2023-04-01T01:07:51;5.33;;;1.63;;
15327;SDS011;7764;51.430;6.840;2023-04-01T01:10:26;2.63;;;1.50;;
15327;SDS011;7764;51.430;6.840;2023-04-01T01:13:00;3.07;;;1.43;;
15327;SDS011;7764;51.430;6.840;2023-04-01T01:15:32;4.40;;;1.60;;
15327;SDS011;7764;51.430;6.840;2023-04-01T01:18:08;5.40;;;1.70;;
15327;SDS011;7764;51.430;6.840;2023-04-01T01:20:48;4.00;;;1.50;;
15327;SDS011;7764;51.430;6.840;2023-04-01T01:23:41;3.63;;;1.60;;
15327;SDS011;7764;51.430;6.840;2023-04-01T01:26:39;4.37;;;1.47;;
15327;SDS011;7764;51.430;6.840;2023-04-01T01:29:25;6.00;;;1.90;;
15327;SDS011;7764;51.430;6.840;2023-04-01T01:32:07;5.53;;;1.57;;
15327;SDS011;7764;51.430;6.840;2023-04-01T01:34:42;3.17;;;1.57;;
15327;SDS011;7764;51.430;6.840;2023-04-01T01:37:20;3.30;;;1.50;;
15327;SDS011;7764;51.430;6.840;2023-04-01T01:39:52;4.33;;;1.67;;
15327;SDS011;7764;51.430;6.840;2023-04-01T01:42:22;3.77;;;1.60;;
15327;SDS011;7764;51.430;6.840;2023-04-01T01:44:51;2.97;;;1.37;;
15327;SDS011;7764;51.430;6.840;2023-04-01T01:47:19;3.97;;;1.37;;
15327;SDS011;7764;51.430;6.840;2023-04-01T01:49:49;5.50;;;1.50;;
15327;SDS011;7764;51.430;6.840;2023-04-01T01:52:19;4.90;;;1.50;;
15327;SDS011;7764;51.430;6.840;2023-04-01T01:54:48;2.67;;;1.30;;
15327;SDS011;7764;51.430;6.840;2023-04-01T01:57:15;2.07;;;1.50;;
15327;SDS011;7764;51.430;6.840;2023-04-01T01:59:43;2.37;;;1.40;;
15327;SDS011;7764;51.430;6.840;2023-04-01T02:02:14;2.80;;;1.30;;
15327;SDS011;7764;51.430;6.840;2023-04-01T02:04:43;3.40;;;1.40;;
15327;SDS011;7764;51.430;6.840;2023-04-01T02:07:13;3.87;;;1.33;;
15327;SDS011;7764;51.430;6.840;2023-04-01T02:09:44;2.07;;;1.30;;
15327;SDS011;7764;51.430;6.840;2023-04-01T02:12:12;2.37;;;1.33;;
15327;SDS011;7764;51.430;6.840;2023-04-01T02:14:42;3.93;;;1.40;;
15327;SDS011;7764;51.430;6.840;2023-04-01T02:17:13;1.53;;;1.23;;
15327;SDS011;7764;51.430;6.840;2023-04-01T02:19:43;2.73;;;1.40;;
15327;SDS011;7764;51.430;6.840;2023-04-01T02:22:16;2.80;;;1.57;;
15327;SDS011;7764;51.430;6.840;2023-04-01T02:24:48;5.73;;;1.40;;
15327;SDS011;7764;51.430;6.840;2023-04-01T02:27:16;2.77;;;1.40;;
15327;SDS011;7764;51.430;6.840;2023-04-01T02:29:43;3.20;;;1.53;;
15327;SDS011;7764;51.430;6.840;2023-04-01T02:32:10;3.93;;;1.40;;
15327;SDS011;7764;51.430;6.840;2023-04-01T02:34:39;3.73;;;1.40;;
15327;SDS011;7764;51.430;6.840;2023-04-01T02:37:06;3.47;;;1.50;;
15327;SDS011;7764;51.430;6.840;2023-04-01T02:39:33;4.03;;;1.57;;
15327;SDS011;7764;51.430;6.840;2023-04-01T02:42:01;5.43;;;1.60;;
15327;SDS011;7764;51.430;6.840;2023-04-01T02:44:28;4.73;;;1.67;;
15327;SDS011;7764;51.430;6.840;2023-04-01T02:46:55;5.00;;;2.00;;
15327;SDS011;7764;51.430;6.840;2023-04-01T02:49:22;4.30;;;2.03;;
15327;SDS011;7764;51.430;6.840;2023-04-01T02:51:49;5.73;;;2.20;;
15327;SDS011;7764;51.430;6.840;2023-04-01T02:54:16;6.63;;;2.60;;
15327;SDS011;7764;51.430;6.840;2023-04-01T02:56:44;4.57;;;1.90;;
15327;SDS011;7764;51.430;6.840;2023-04-01T02:59:13;5.30;;;2.50;;
15327;SDS011;7764;51.430;6.840;2023-04-01T03:01:39;5.83;;;2.30;;
15327;SDS011;7764;51.430;6.840;2023-04-01T03:04:06;5.10;;;2.30;;
15327;SDS011;7764;51.430;6.840;2023-04-01T03:06:33;4.43;;;2.10;;
15327;SDS011;7764;51.430;6.840;2023-04-01T03:09:00;5.23;;;2.10;;
15327;SDS011;7764;51.430;6.840;2023-04-01T03:11:27;7.77;;;3.00;;
15327;SDS011;7764;51.430;6.840;2023-04-01T03:13:54;9.73;;;4.30;;
15327;SDS011;7764;51.430;6.840;2023-04-01T03:16:22;5.50;;;3.43;;
15327;SDS011;7764;51.430;6.840;2023-04-01T03:18:49;6.90;;;3.70;;
15327;SDS011;7764;51.430;6.840;2023-04-01T03:21:19;7.47;;;4.80;;
15327;SDS011;7764;51.430;6.840;2023-04-01T03:23:46;8.20;;;4.77;;
15327;SDS011;7764;51.430;6.840;2023-04-01T03:26:14;5.80;;;3.90;;
15327;SDS011;7764;51.430;6.840;2023-04-01T03:28:41;5.33;;;3.17;;
15327;SDS011;7764;51.430;6.840;2023-04-01T03:31:08;3.97;;;2.50;;
15327;SDS011;7764;51.430;6.840;2023-04-01T03:33:36;3.43;;;2.30;;
15327;SDS011;7764;51.430;6.840;2023-04-01T03:36:03;3.90;;;2.20;;
15327;SDS011;7764;51.430;6.840;2023-04-01T03:38:31;3.63;;;2.33;;
15327;SDS011;7764;51.430;6.840;2023-04-01T03:40:58;4.27;;;2.23;;
15327;SDS011;7764;51.430;6.840;2023-04-01T03:43:25;4.43;;;2.10;;
15327;SDS011;7764;51.430;6.840;2023-04-01T03:45:52;3.27;;;2.43;;
15327;SDS011;7764;51.430;6.840;2023-04-01T03:48:20;6.17;;;2.53;;
15327;SDS011;7764;51.430;6.840;2023-04-01T03:50:48;5.40;;;2.43;;
15327;SDS011;7764;51.430;6.840;2023-04-01T03:53:15;3.70;;;2.30;;
15327;SDS011;7764;51.430;6.840;2023-04-01T03:55:42;4.13;;;2.23;;
15327;SDS011;7764;51.430;6.840;2023-04-01T03:58:09;3.60;;;2.30;;
15327;SDS011;7764;51.430;6.840;2023-04-01T04:00:36;4.40;;;2.30;;
15327;SDS011;7764;51.430;6.840;2023-04-01T04:03:05;4.10;;;2.20;;
15327;SDS011;7764;51.430;6.840;2023-04-01T04:05:32;4.97;;;2.30;;
15327;SDS011;7764;51.430;6.840;2023-04-01T04:08:00;3.37;;;2.13;;
15327;SDS011;7764;51.430;6.840;2023-04-01T04:10:28;4.73;;;2.20;;
15327;SDS011;7764;51.430;6.840;2023-04-01T04:12:55;2.93;;;1.97;;
15327;SDS011;7764;51.430;6.840;2023-04-01T04:15:22;3.37;;;1.80;;
15327;SDS011;7764;51.430;6.840;2023-04-01T04:17:49;4.73;;;1.80;;
15327;SDS011;7764;51.430;6.840;2023-04-01T04:20:16;4.53;;;2.23;;
15327;SDS011;7764;51.430;6.840;2023-04-01T04:22:43;3.57;;;1.90;;
15327;SDS011;7764;51.430;6.840;2023-04-01T04:25:11;4.10;;;2.00;;
15327;SDS011;7764;51.430;6.840;2023-04-01T04:27:38;2.47;;;1.93;;
15327;SDS011;7764;51.430;6.840;2023-04-01T04:30:06;3.57;;;2.10;;
15327;SDS011;7764;51.430;6.840;2023-04-01T04:32:33;3.63;;;1.90;;
15327;SDS011;7764;51.430;6.840;2023-04-01T04:35:00;3.53;;;2.00;;
15327;SDS011;7764;51.430;6.840;2023-04-01T04:37:27;2.87;;;1.90;;
15327;SDS011;7764;51.430;6.840;2023-04-01T04:39:54;4.07;;;2.37;;
15327;SDS011;7764;51.430;6.840;2023-04-01T04:42:22;4.23;;;2.10;;
15327;SDS011;7764;51.430;6.840;2023-04-01T04:44:49;3.57;;;2.30;;
15327;SDS011;7764;51.430;6.840;2023-04-01T04:47:16;5.27;;;3.03;;
15327;SDS011;7764;51.430;6.840;2023-04-01T04:49:43;4.70;;;2.67;;
15327;SDS011;7764;51.430;6.840;2023-04-01T04:52:10;5.07;;;3.10;;
15327;SDS011;7764;51.430;6.840;2023-04-01T04:54:37;4.90;;;2.90;;
15327;SDS011;7764;51.430;6.840;2023-04-01T04:57:04;4.97;;;3.00;;
15327;SDS011;7764;51.430;6.840;2023-04-01T04:59:32;4.83;;;3.03;;
15327;SDS011;7764;51.430;6.840;2023-04-01T05:01:59;5.53;;;3.60;;
15327;SDS011;7764;51.430;6.840;2023-04-01T05:04:26;6.70;;;3.20;;
15327;SDS011;7764;51.430;6.840;2023-04-01T05:06:52;4.83;;;3.03;;
15327;SDS011;7764;51.430;6.840;2023-04-01T05:09:20;4.13;;;2.80;;
15327;SDS011;7764;51.430;6.840;2023-04-01T05:11:46;5.33;;;3.00;;
15327;SDS011;7764;51.430;6.840;2023-04-01T05:14:13;4.50;;;2.90;;
15327;SDS011;7764;51.430;6.840;2023-04-01T05:16:42;5.50;;;3.07;;
15327;SDS011;7764;51.430;6.840;2023-04-01T05:19:09;4.03;;;3.00;;
15327;SDS011;7764;51.430;6.840;2023-04-01T05:21:36;5.10;;;3.50;;
15327;SDS011;7764;51.430;6.840;2023-04-01T05:24:03;7.20;;;4.20;;
15327;SDS011;7764;51.430;6.840;2023-04-01T05:26:33;6.90;;;4.10;;
15327;SDS011;7764;51.430;6.840;2023-04-01T05:29:00;5.27;;;4.00;;
15327;SDS011;7764;51.430;6.840;2023-04-01T05:31:26;6.47;;;4.57;;
15327;SDS011;7764;51.430;6.840;2023-04-01T05:33:55;6.63;;;4.70;;
15327;SDS011;7764;51.430;6.840;2023-04-01T05:36:22;7.00;;;4.77;;
15327;SDS011;7764;51.430;6.840;2023-04-01T05:38:49;7.77;;;5.50;;
15327;SDS011;7764;51.430;6.840;2023-04-01T05:41:16;7.90;;;5.87;;
15327;SDS011;7764;51.430;6.840;2023-04-01T05:43:43;8.00;;;5.23;;
15327;SDS011;7764;51.430;6.840;2023-04-01T05:46:10;14.07;;;9.30;;
15327;SDS011;7764;51.430;6.840;2023-04-01T05:48:37;7.07;;;5.47;;
15327;SDS011;7764;51.430;6.840;2023-04-01T05:51:06;7.30;;;4.93;;
15327;SDS011;7764;51.430;6.840;2023-04-01T05:53:38;8.40;;;5.30;;
15327;SDS011;7764;51.430;6.840;2023-04-01T05:56:05;8.33;;;5.60;;
15327;SDS011;7764;51.430;6.840;2023-04-01T05:58:34;7.80;;;6.17;;
15327;SDS011;7764;51.430;6.840;2023-04-01T06:01:02;9.70;;;7.00;;
15327;SDS011;7764;51.430;6.840;2023-04-01T06:03:30;10.27;;;6.60;;
15327;SDS011;7764;51.430;6.840;2023-04-01T06:05:57;8.27;;;6.70;;
15327;SDS011;7764;51.430;6.840;2023-04-01T06:08:25;11.07;;;7.63;;
15327;SDS011;7764;51.430;6.840;2023-04-01T06:10:59;10.63;;;8.07;;
15327;SDS011;7764;51.430;6.840;2023-04-01T06:13:38;8.83;;;6.97;;
15327;SDS011;7764;51.430;6.840;2023-04-01T06:16:18;10.50;;;7.20;;
15327;SDS011;7764;51.430;6.840;2023-04-01T06:18:55;10.40;;;7.60;;
15327;SDS011;7764;51.430;6.840;2023-04-01T06:21:49;11.53;;;8.10;;
15327;SDS011;7764;51.430;6.840;2023-04-01T06:24:48;13.23;;;9.17;;
15327;SDS011;7764;51.430;6.840;2023-04-01T06:27:27;15.73;;;10.23;;
15327;SDS011;7764;51.430;6.840;2023-04-01T06:30:16;12.53;;;9.07;;
15327;SDS011;7764;51.430;6.840;2023-04-01T06:33:08;13.13;;;8.60;;
15327;SDS011;7764;51.430;6.840;2023-04-01T06:45:05;10.03;;;8.10;;
15327;SDS011;7764;51.430;6.840;2023-04-01T06:47:45;11.80;;;8.73;;
15327;SDS011;7764;51.430;6.840;2023-04-01T06:50:24;11.27;;;8.27;;
15327;SDS011;7764;51.430;6.840;2023-04-01T06:52:58;11.20;;;8.63;;
15327;SDS011;7764;51.430;6.840;2023-04-01T06:55:35;11.40;;;8.37;;
15327;SDS011;7764;51.430;6.840;2023-04-01T06:58:06;13.27;;;9.47;;
15327;SDS011;7764;51.430;6.840;2023-04-01T07:00:42;13.57;;;9.90;;
15327;SDS011;7764;51.430;6.840;2023-04-01T07:03:14;13.90;;;10.57;;
15327;SDS011;7764;51.430;6.840;2023-04-01T07:05:46;14.30;;;10.60;;
15327;SDS011;7764;51.430;6.840;2023-04-01T07:08:15;12.33;;;8.90;;
15327;SDS011;7764;51.430;6.840;2023-04-01T07:10:47;11.37;;;8.50;;
15327;SDS011;7764;51.430;6.840;2023-04-01T07:13:19;11.70;;;8.33;;
15327;SDS011;7764;51.430;6.840;2023-04-01T07:15:54;11.43;;;8.20;;
15327;SDS011;7764;51.430;6.840;2023-04-01T07:18:29;17.43;;;12.57;;
15327;SDS011;7764;51.430;6.840;2023-04-01T07:21:01;9.07;;;6.97;;
15327;SDS011;7764;51.430;6.840;2023-04-01T07:23:29;8.97;;;6.70;;
15327;SDS011;7764;51.430;6.840;2023-04-01T07:26:00;9.63;;;6.70;;
15327;SDS011;7764;51.430;6.840;2023-04-01T07:28:33;10.07;;;7.73;;
15327;SDS011;7764;51.430;6.840;2023-04-01T07:31:05;9.60;;;7.50;;
15327;SDS011;7764;51.430;6.840;2023-04-01T07:33:42;9.13;;;7.30;;
15327;SDS011;7764;51.430;6.840;2023-04-01T07:36:13;9.60;;;7.40;;
15327;SDS011;7764;51.430;6.840;2023-04-01T07:38:47;10.90;;;8.17;;
15327;SDS011;7764;51.430;6.840;2023-04-01T07:41:27;11.97;;;8.10;;
15327;SDS011;7764;51.430;6.840;2023-04-01T07:44:07;11.60;;;7.63;;
15327;SDS011;7764;51.430;6.840;2023-04-01T07:46:52;10.27;;;8.17;;
15327;SDS011;7764;51.430;6.840;2023-04-01T07:49:36;10.37;;;8.00;;
15327;SDS011;7764;51.430;6.840;2023-04-01T07:52:12;9.27;;;7.20;;
15327;SDS011;7764;51.430;6.840;2023-04-01T07:54:49;9.20;;;7.17;;
15327;SDS011;7764;51.430;6.840;2023-04-01T07:57:24;9.70;;;8.20;;
15327;SDS011;7764;51.430;6.840;2023-04-01T07:59:59;10.23;;;7.33;;
15327;SDS011;7764;51.430;6.840;2023-04-01T08:02:37;10.50;;;7.53;;
15327;SDS011;7764;51.430;6.840;2023-04-01T08:05:18;11.60;;;6.80;;
15327;SDS011;7764;51.430;6.840;2023-04-01T08:07:52;9.47;;;6.90;;
15327;SDS011;7764;51.430;6.840;2023-04-01T08:10:32;9.23;;;6.70;;
15327;SDS011;7764;51.430;6.840;2023-04-01T08:13:08;8.87;;;6.80;;
15327;SDS011;7764;51.430;6.840;2023-04-01T08:15:44;9.10;;;6.80;;
15327;SDS011;7764;51.430;6.840;2023-04-01T08:18:26;10.17;;;7.87;;
15327;SDS011;7764;51.430;6.840;2023-04-01T08:21:01;14.53;;;10.30;;
15327;SDS011;7764;51.430;6.840;2023-04-01T08:23:32;9.80;;;7.10;;
15327;SDS011;7764;51.430;6.840;2023-04-01T08:26:05;8.97;;;7.53;;
15327;SDS011;7764;51.430;6.840;2023-04-01T08:28:39;9.70;;;7.33;;
15327;SDS011;7764;51.430;6.840;2023-04-01T08:31:10;10.40;;;7.60;;
15327;SDS011;7764;51.430;6.840;2023-04-01T08:33:46;9.03;;;6.70;;
15327;SDS011;7764;51.430;6.840;2023-04-01T08:36:15;9.53;;;6.93;;
15327;SDS011;7764;51.430;6.840;2023-04-01T08:38:48;8.93;;;6.77;;
15327;SDS011;7764;51.430;6.840;2023-04-01T08:41:23;7.63;;;6.10;;
15327;SDS011;7764;51.430;6.840;2023-04-01T08:44:15;7.97;;;6.33;;
15327;SDS011;7764;51.430;6.840;2023-04-01T08:47:14;9.67;;;6.70;;
15327;SDS011;7764;51.430;6.840;2023-04-01T08:50:16;9.33;;;6.90;;
15327;SDS011;7764;51.430;6.840;2023-04-01T08:52:58;7.70;;;6.03;;
15327;SDS011;7764;51.430;6.840;2023-04-01T08:55:31;8.10;;;5.97;;
15327;SDS011;7764;51.430;6.840;2023-04-01T09:01:15;8.10;;;6.07;;
15327;SDS011;7764;51.430;6.840;2023-04-01T09:04:00;9.67;;;6.53;;
15327;SDS011;7764;51.430;6.840;2023-04-01T09:06:44;10.10;;;7.67;;
15327;SDS011;7764;51.430;6.840;2023-04-01T09:18:24;9.77;;;6.70;;
15327;SDS011;7764;51.430;6.840;2023-04-01T09:21:19;10.57;;;7.20;;
15327;SDS011;7764;51.430;6.840;2023-04-01T09:24:16;9.57;;;7.10;;
15327;SDS011;7764;51.430;6.840;2023-04-01T09:26:57;10.80;;;7.37;;
15327;SDS011;7764;51.430;6.840;2023-04-01T09:29:34;13.27;;;8.70;;
15327;SDS011;7764;51.430;6.840;2023-04-01T09:32:36;9.73;;;7.17;;
15327;SDS011;7764;51.430;6.840;2023-04-01T09:35:19;10.67;;;8.37;;
15327;SDS011;7764;51.430;6.840;2023-04-01T09:37:52;9.10;;;7.33;;
15327;SDS011;7764;51.430;6.840;2023-04-01T09:40:33;10.00;;;7.40;;
15327;SDS011;7764;51.430;6.840;2023-04-01T09:46:10;13.07;;;8.70;;
15327;SDS011;7764;51.430;6.840;2023-04-01T09:48:53;10.93;;;8.47;;
15327;SDS011;7764;51.430;6.840;2023-04-01T09:51:32;12.87;;;8.93;;
15327;SDS011;7764;51.430;6.840;2023-04-01T09:54:13;12.13;;;8.83;;
15327;SDS011;7764;51.430;6.840;2023-04-01T10:03:10;13.27;;;10.03;;
15327;SDS011;7764;51.430;6.840;2023-04-01T10:06:03;13.63;;;9.90;;
15327;SDS011;7764;51.430;6.840;2023-04-01T10:08:58;16.53;;;11.10;;
15327;SDS011;7764;51.430;6.840;2023-04-01T10:15:03;15.13;;;10.87;;
15327;SDS011;7764;51.430;6.840;2023-04-01T10:17:55;15.13;;;11.60;;
15327;SDS011;7764;51.430;6.840;2023-04-01T10:20:46;15.73;;;11.47;;
15327;SDS011;7764;51.430;6.840;2023-04-01T10:23:40;17.23;;;12.57;;
15327;SDS011;7764;51.430;6.840;2023-04-01T10:26:29;17.77;;;11.87;;
15327;SDS011;7764;51.430;6.840;2023-04-01T10:29:26;17.10;;;10.50;;
15327;SDS011;7764;51.430;6.840;2023-04-01T10:38:37;14.80;;;10.70;;
15327;SDS011;7764;51.430;6.840;2023-04-01T10:51:06;17.37;;;11.00;;
15327;SDS011;7764;51.430;6.840;2023-04-01T10:53:49;15.53;;;10.77;;
15327;SDS011;7764;51.430;6.840;2023-04-01T10:56:43;15.77;;;11.60;;
15327;SDS011;7764;51.430;6.840;2023-04-01T11:02:26;17.27;;;12.83;;
15327;SDS011;7764;51.430;6.840;2023-04-01T11:08:38;19.17;;;13.23;;
15327;SDS011;7764;51.430;6.840;2023-04-01T11:11:47;18.90;;;13.57;;
15327;SDS011;7764;51.430;6.840;2023-04-01T11:14:58;17.77;;;12.37;;
15327;SDS011;7764;51.430;6.840;2023-04-01T11:21:15;19.17;;;13.57;;
15327;SDS011;7764;51.430;6.840;2023-04-01T11:24:08;18.80;;;13.37;;
15327;SDS011;7764;51.430;6.840;2023-04-01T11:26:50;18.93;;;13.97;;
15327;SDS011;7764;51.430;6.840;2023-04-01T11:29:32;17.57;;;13.60;;
15327;SDS011;7764;51.430;6.840;2023-04-01T11:32:12;18.60;;;13.23;;
15327;SDS011;7764;51.430;6.840;2023-04-01T11:34:57;20.97;;;13.70;;
15327;SDS011;7764;51.430;6.840;2023-04-01T11:37:45;17.40;;;13.33;;
15327;SDS011;7764;51.430;6.840;2023-04-01T11:40:28;17.97;;;14.13;;
15327;SDS011;7764;51.430;6.840;2023-04-01T11:43:06;19.17;;;14.63;;
15327;SDS011;7764;51.430;6.840;2023-04-01T11:45:41;17.97;;;14.17;;
15327;SDS011;7764;51.430;6.840;2023-04-01T11:51:16;23.70;;;17.73;;
15327;SDS011;7764;51.430;6.840;2023-04-01T11:54:00;20.23;;;14.83;;
15327;SDS011;7764;51.430;6.840;2023-04-01T11:56:51;23.10;;;15.90;;
15327;SDS011;7764;51.430;6.840;2023-04-01T11:59:41;24.90;;;17.33;;
15327;SDS011;7764;51.430;6.840;2023-04-01T12:02:29;39.73;;;26.87;;
15327;SDS011;7764;51.430;6.840;2023-04-01T12:05:08;32.23;;;21.37;;
15327;SDS011;7764;51.430;6.840;2023-04-01T12:07:59;26.27;;;19.07;;
15327;SDS011;7764;51.430;6.840;2023-04-01T12:10:38;24.47;;;18.80;;
15327;SDS011;7764;51.430;6.840;2023-04-01T12:13:10;22.13;;;17.87;;
15327;SDS011;7764;51.430;6.840;2023-04-01T12:15:53;25.30;;;17.97;;
15327;SDS011;7764;51.430;6.840;2023-04-01T12:18:33;21.07;;;16.53;;
15327;SDS011;7764;51.430;6.840;2023-04-01T12:21:08;20.33;;;16.00;;
15327;SDS011;7764;51.430;6.840;2023-04-01T12:23:57;23.63;;;17.97;;
15327;SDS011;7764;51.430;6.840;2023-04-01T12:32:53;18.07;;;13.50;;
15327;SDS011;7764;51.430;6.840;2023-04-01T12:35:26;14.23;;;11.00;;
15327;SDS011;7764;51.430;6.840;2023-04-01T12:38:04;15.43;;;10.67;;
15327;SDS011;7764;51.430;6.840;2023-04-01T12:40:51;14.63;;;11.10;;
15327;SDS011;7764;51.430;6.840;2023-04-01T12:43:31;13.27;;;10.03;;
15327;SDS011;7764;51.430;6.840;2023-04-01T12:46:20;13.60;;;10.33;;
15327;SDS011;7764;51.430;6.840;2023-04-01T12:49:03;13.27;;;10.17;;
15327;SDS011;7764;51.430;6.840;2023-04-01T12:52:00;14.03;;;9.40;;
15327;SDS011;7764;51.430;6.840;2023-04-01T12:54:52;15.07;;;11.30;;
15327;SDS011;7764;51.430;6.840;2023-04-01T13:00:49;14.00;;;10.87;;
15327;SDS011;7764;51.430;6.840;2023-04-01T13:03:50;14.03;;;9.70;;
15327;SDS011;7764;51.430;6.840;2023-04-01T13:06:37;12.83;;;9.87;;
15327;SDS011;7764;51.430;6.840;2023-04-01T13:09:18;13.27;;;10.17;;
15327;SDS011;7764;51.430;6.840;2023-04-01T13:12:01;12.20;;;9.30;;
15327;SDS011;7764;51.430;6.840;2023-04-01T13:14:59;14.10;;;9.80;;
15327;SDS011;7764;51.430;6.840;2023-04-01T13:17:39;14.60;;;10.03;;
15327;SDS011;7764;51.430;6.840;2023-04-01T13:20:15;15.30;;;10.53;;
15327;SDS011;7764;51.430;6.840;2023-04-01T13:22:55;15.33;;;11.00;;
15327;SDS011;7764;51.430;6.840;2023-04-01T13:25:34;13.70;;;10.07;;
15327;SDS011;7764;51.430;6.840;2023-04-01T13:28:06;19.13;;;13.43;;
15327;SDS011;7764;51.430;6.840;2023-04-01T13:30:42;15.97;;;10.80;;
15327;SDS011;7764;51.430;6.840;2023-04-01T13:33:17;14.47;;;9.67;;
15327;SDS011;7764;51.430;6.840;2023-04-01T13:35:56;15.80;;;9.97;;
15327;SDS011;7764;51.430;6.840;2023-04-01T13:38:43;13.67;;;9.43;;
15327;SDS011;7764;51.430;6.840;2023-04-01T13:41:40;17.27;;;13.40;;
15327;SDS011;7764;51.430;6.840;2023-04-01T13:44:19;13.63;;;10.20;;
15327;SDS011;7764;51.430;6.840;2023-04-01T13:47:01;13.63;;;9.60;;
15327;SDS011;7764;51.430;6.840;2023-04-01T13:52:46;14.07;;;9.97;;
15327;SDS011;7764;51.430;6.840;2023-04-01T13:58:51;14.77;;;10.60;;
15327;SDS011;7764;51.430;6.840;2023-04-01T14:01:35;13.73;;;10.77;;
15327;SDS011;7764;51.430;6.840;2023-04-01T14:04:17;15.47;;;10.93;;
15327;SDS011;7764;51.430;6.840;2023-04-01T14:07:09;16.37;;;11.30;;
15327;SDS011;7764;51.430;6.840;2023-04-01T14:10:12;36.57;;;27.67;;
15327;SDS011;7764;51.430;6.840;2023-04-01T14:12:47;14.20;;;10.97;;
15327;SDS011;7764;51.430;6.840;2023-04-01T14:15:28;14.07;;;10.87;;
15327;SDS011;7764;51.430;6.840;2023-04-01T14:21:14;14.40;;;10.20;;
15327;SDS011;7764;51.430;6.840;2023-04-01T14:23:57;16.17;;;11.30;;
15327;SDS011;7764;51.430;6.840;2023-04-01T14:29:31;17.33;;;11.00;;
15327;SDS011;7764;51.430;6.840;2023-04-01T14:32:11;15.47;;;11.17;;
15327;SDS011;7764;51.430;6.840;2023-04-01T14:34:53;16.63;;;12.53;;
15327;SDS011;7764;51.430;6.840;2023-04-01T14:37:43;15.13;;;11.30;;
15327;SDS011;7764;51.430;6.840;2023-04-01T14:40:27;13.10;;;10.23;;
15327;SDS011;7764;51.430;6.840;2023-04-01T14:46:15;12.53;;;9.17;;
15327;SDS011;7764;51.430;6.840;2023-04-01T14:49:15;13.27;;;9.43;;
15327;SDS011;7764;51.430;6.840;2023-04-01T14:51:49;12.10;;;8.73;;
15327;SDS011;7764;51.430;6.840;2023-04-01T14:54:19;14.00;;;9.40;;
15327;SDS011;7764;51.430;6.840;2023-04-01T14:57:01;12.90;;;9.03;;
15327;SDS011;7764;51.430;6.840;2023-04-01T14:59:38;13.33;;;8.90;;
15327;SDS011;7764;51.430;6.840;2023-04-01T15:02:09;14.60;;;9.77;;
15327;SDS011;7764;51.430;6.840;2023-04-01T15:04:54;14.03;;;9.70;;
15327;SDS011;7764;51.430;6.840;2023-04-01T15:07:35;15.23;;;10.20;;
15327;SDS011;7764;51.430;6.840;2023-04-01T15:10:30;13.07;;;9.33;;
15327;SDS011;7764;51.430;6.840;2023-04-01T15:13:44;13.40;;;9.67;;
15327;SDS011;7764;51.430;6.840;2023-04-01T15:16:31;15.63;;;11.27;;
15327;SDS011;7764;51.430;6.840;2023-04-01T15:19:10;11.17;;;8.60;;
15327;SDS011;7764;51.430;6.840;2023-04-01T15:21:46;12.37;;;7.97;;
15327;SDS011;7764;51.430;6.840;2023-04-01T15:24:38;10.23;;;8.43;;
15327;SDS011;7764;51.430;6.840;2023-04-01T15:27:17;10.87;;;8.27;;
15327;SDS011;7764;51.430;6.840;2023-04-01T15:30:05;11.60;;;8.60;;
15327;SDS011;7764;51.430;6.840;2023-04-01T15:35:59;9.73;;;7.43;;
15327;SDS011;7764;51.430;6.840;2023-04-01T15:38:36;9.07;;;7.30;;
15327;SDS011;7764;51.430;6.840;2023-04-01T15:41:13;10.27;;;7.63;;
15327;SDS011;7764;51.430;6.840;2023-04-01T15:43:42;10.93;;;7.80;;
15327;SDS011;7764;51.430;6.840;2023-04-01T15:49:10;9.10;;;6.90;;
15327;SDS011;7764;51.430;6.840;2023-04-01T15:54:47;10.03;;;7.37;;
15327;SDS011;7764;51.430;6.840;2023-04-01T15:57:28;10.90;;;7.87;;
15327;SDS011;7764;51.430;6.840;2023-04-01T16:00:06;8.57;;;6.67;;
15327;SDS011;7764;51.430;6.840;2023-04-01T16:02:52;9.97;;;6.67;;
15327;SDS011;7764;51.430;6.840;2023-04-01T16:05:37;9.23;;;6.97;;
15327;SDS011;7764;51.430;6.840;2023-04-01T16:08:24;10.10;;;7.47;;
15327;SDS011;7764;51.430;6.840;2023-04-01T16:11:11;9.80;;;7.50;;
15327;SDS011;7764;51.430;6.840;2023-04-01T16:13:52;10.80;;;7.87;;
15327;SDS011;7764;51.430;6.840;2023-04-01T16:16:31;16.40;;;11.30;;
15327;SDS011;7764;51.430;6.840;2023-04-01T16:19:12;24.73;;;19.17;;
15327;SDS011;7764;51.430;6.840;2023-04-01T16:21:54;11.67;;;7.33;;
15327;SDS011;7764;51.430;6.840;2023-04-01T16:24:30;10.70;;;7.83;;
15327;SDS011;7764;51.430;6.840;2023-04-01T16:27:04;12.10;;;8.10;;
15327;SDS011;7764;51.430;6.840;2023-04-01T16:29:38;12.47;;;7.97;;
15327;SDS011;7764;51.430;6.840;2023-04-01T16:32:22;10.23;;;7.43;;
15327;SDS011;7764;51.430;6.840;2023-04-01T16:35:01;10.87;;;7.80;;
15327;SDS011;7764;51.430;6.840;2023-04-01T16:37:59;11.60;;;7.77;;
15327;SDS011;7764;51.430;6.840;2023-04-01T16:40:36;12.50;;;9.27;;
15327;SDS011;7764;51.430;6.840;2023-04-01T16:43:12;12.30;;;8.37;;
15327;SDS011;7764;51.430;6.840;2023-04-01T16:45:53;14.47;;;9.70;;
15327;SDS011;7764;51.430;6.840;2023-04-01T16:48:45;12.17;;;8.90;;
15327;SDS011;7764;51.430;6.840;2023-04-01T16:51:23;13.17;;;9.17;;
15327;SDS011;7764;51.430;6.840;2023-04-01T16:53:53;18.30;;;10.67;;
15327;SDS011;7764;51.430;6.840;2023-04-01T16:56:36;16.67;;;11.10;;
15327;SDS011;7764;51.430;6.840;2023-04-01T16:59:15;20.70;;;13.10;;
15327;SDS011;7764;51.430;6.840;2023-04-01T17:01:48;17.00;;;11.87;;
15327;SDS011;7764;51.430;6.840;2023-04-01T17:04:20;20.00;;;12.20;;
15327;SDS011;7764;51.430;6.840;2023-04-01T17:06:53;14.97;;;10.87;;
15327;SDS011;7764;51.430;6.840;2023-04-01T17:09:30;14.57;;;11.17;;
15327;SDS011;7764;51.430;6.840;2023-04-01T17:12:09;16.17;;;11.30;;
15327;SDS011;7764;51.430;6.840;2023-04-01T17:14:46;16.50;;;11.27;;
15327;SDS011;7764;51.430;6.840;2023-04-01T17:17:31;16.37;;;12.10;;
15327;SDS011;7764;51.430;6.840;2023-04-01T17:20:10;17.97;;;12.07;;
15327;SDS011;7764;51.430;6.840;2023-04-01T17:22:48;18.17;;;13.07;;